Hlavní strana
METAR-TAF:

METAR-TAF

Letiště :

Letiště Managua

Managua, Nikaragua

zeměpisná šířka: 12-09N, zeměpisná délka: 086-10W, výška: 50 m

Aktuální stav počasí

Zpráva byla vytvořena před 1 hodinou a 50 minutami, v 03:00 UTC
Východojihovýchodní vítr 6 kt
Teplota 25°C
Vlhkost vzduchu 74%
Tlak 1014 hPa
Viditelnost 10 km a více
Žádná oblačnost pod 1500 m, nevyskytují se cumulonimby.

METAR: MNMG 250300Z 12006KT CAVOK 25/20 Q1013 A2994 NOSIG

Čas: 22:50 (04:50 UTC)

Předpověď počasí

Zpráva byla vytvořena před 7 hodinami a 55 minutami, v 20:55 UTC
Předpověď platná od 25 v 00 UTC do 25 v 24 UTC
Východní vítr 8 kt
Viditelnost 10 km a více
Skoro jasno ve výšce 2800 ft
Polojasno ve výšce 6000 ft
Dočasný
od 25 v 03 UTC do 25 v 10 UTC
Jihovýchodní vítr 6 kt
Viditelnost 10 km a více
Žádná oblačnost pod 1500 m, nevyskytují se cumulonimby.

TAF: MNMG 242055Z 2500/2524 09008KT 9999 FEW028 SCT060 TEMPO 2503/2510 13006KT CAVOK

Stav a předpovědi počasí z více než 4 000 letišť (zprávy METAR a TAF).

Červené a žluté tečky na mapě představují dostupné meteorologické stanice.

Když kurzor umístíte na tečku, zobrazí se název stanice.

Pak kliknutím zobrazíte stav a předpověď počasí.

Chcete-li změnit mapu, kliknutím na zelené tlačítko se znaménkem +mapu přiblížíte, kliknutím na zelené tlačítko se znaménkem – mapu oddálíte a kliknutím na zelené šipky přejdete na sousední mapy.


METAR-TAF: